createdAt,value
2022-12-17T00:01:37.243Z,24.30
2022-12-17T00:07:05.218Z,18.27
2022-12-17T00:12:25.724Z,16.20
2022-12-17T00:17:45.947Z,17.58
2022-12-17T00:23:06.492Z,17.10
2022-12-17T00:28:32.895Z,14.85
2022-12-17T00:33:55.763Z,14.77
2022-12-17T00:39:16.701Z,15.00
2022-12-17T00:44:36.883Z,14.23
2022-12-17T00:49:57.565Z,16.10
2022-12-17T00:55:19.167Z,16.88
2022-12-17T01:00:39.564Z,16.60
2022-12-17T01:06:01.261Z,19.20
2022-12-17T01:11:25.067Z,20.40
2022-12-17T01:16:45.683Z,22.00
2022-12-17T01:22:05.969Z,20.45
2022-12-17T01:27:27.002Z,15.73
2022-12-17T01:32:47.158Z,19.67
2022-12-17T01:38:07.259Z,18.17
2022-12-17T01:43:31.016Z,19.90
2022-12-17T01:48:56.750Z,18.13
2022-12-17T01:54:17.209Z,16.75
2022-12-17T01:59:42.530Z,15.77
2022-12-17T02:05:02.824Z,17.73
2022-12-17T02:10:23.336Z,15.82
2022-12-17T02:15:56.638Z,15.68
2022-12-17T02:21:18.886Z,15.40
2022-12-17T02:26:58.529Z,16.33
2022-12-17T02:32:21.920Z,16.35
2022-12-17T02:37:44.716Z,15.65
2022-12-17T02:43:07.053Z,15.30
2022-12-17T02:48:30.979Z,16.00
2022-12-17T02:53:52.886Z,14.35
2022-12-17T02:59:13.250Z,14.75
2022-12-17T03:04:36.600Z,15.30
2022-12-17T03:09:57.007Z,15.55
2022-12-17T03:15:17.942Z,15.25
2022-12-17T03:20:38.256Z,13.75
2022-12-17T03:25:58.671Z,13.77
2022-12-17T03:31:19.630Z,12.68
2022-12-17T03:36:40.382Z,12.82
2022-12-17T03:42:00.626Z,13.75
2022-12-17T03:47:20.986Z,13.52
2022-12-17T03:52:41.096Z,12.48
2022-12-17T03:58:01.411Z,12.90
2022-12-17T04:03:21.766Z,12.90
2022-12-17T04:08:42.194Z,14.25
2022-12-17T04:14:02.295Z,11.75
2022-12-17T04:19:22.927Z,12.52
2022-12-17T04:24:43.193Z,14.52
2022-12-17T04:30:03.379Z,11.98
2022-12-17T04:35:24.164Z,11.68
2022-12-17T04:40:44.419Z,12.43
2022-12-17T04:46:08.411Z,12.07
2022-12-17T04:51:28.692Z,14.13
2022-12-17T04:56:48.901Z,11.98
2022-12-17T05:02:10.859Z,12.48
2022-12-17T05:07:31.476Z,10.98
2022-12-17T05:12:51.668Z,11.23
2022-12-17T05:18:13.251Z,11.15
2022-12-17T05:23:34.058Z,12.68
2022-12-17T05:28:54.601Z,13.75
2022-12-17T05:34:16.566Z,11.10
2022-12-17T05:39:37.017Z,12.13
2022-12-17T05:44:57.289Z,12.30
2022-12-17T05:50:17.443Z,11.15
2022-12-17T05:55:37.554Z,11.23
2022-12-17T06:00:57.662Z,11.63
2022-12-17T06:06:17.709Z,13.45
2022-12-17T06:11:37.893Z,11.40
2022-12-17T06:16:58.108Z,11.13
2022-12-17T06:22:19.423Z,13.27
2022-12-17T06:27:39.756Z,13.15
2022-12-17T06:33:00.022Z,10.10
2022-12-17T06:38:22.990Z,11.40
2022-12-17T06:43:43.383Z,9.23
2022-12-17T06:49:03.845Z,10.90
2022-12-17T06:54:24.021Z,9.48
2022-12-17T06:59:44.237Z,9.65
2022-12-17T07:05:04.512Z,9.00
2022-12-17T07:10:25.523Z,10.00
2022-12-17T07:15:45.832Z,7.97
2022-12-17T07:21:07.467Z,9.07
2022-12-17T07:26:27.707Z,8.48
2022-12-17T07:31:48.001Z,9.13
2022-12-17T07:37:08.324Z,8.40
2022-12-17T07:42:28.926Z,8.80
2022-12-17T07:47:49.200Z,9.65
2022-12-17T07:53:19.767Z,10.43
2022-12-17T07:58:40.172Z,11.23
2022-12-17T08:04:00.505Z,12.32
2022-12-17T08:09:20.690Z,11.40
2022-12-17T08:14:41.081Z,11.30
2022-12-17T08:20:01.417Z,8.68
2022-12-17T08:25:21.769Z,9.32
2022-12-17T08:30:42.492Z,11.57
2022-12-17T08:36:17.389Z,10.65
2022-12-17T08:41:46.609Z,10.70
2022-12-17T08:47:10.138Z,10.98
2022-12-17T08:52:32.833Z,10.57
2022-12-17T08:57:53.066Z,9.73
2022-12-17T09:03:20.943Z,11.80
2022-12-17T09:08:41.259Z,11.57
2022-12-17T09:14:01.161Z,11.40
2022-12-17T09:19:25.014Z,10.15
2022-12-17T09:24:45.179Z,15.77
2022-12-17T09:30:05.401Z,15.57
2022-12-17T09:35:25.658Z,17.48
2022-12-17T09:40:48.385Z,17.63
2022-12-17T09:46:24.454Z,17.55
2022-12-17T09:51:47.295Z,16.40
2022-12-17T09:57:07.864Z,14.77
2022-12-17T10:02:45.497Z,15.90
2022-12-17T10:08:07.007Z,16.40
2022-12-17T10:13:39.689Z,16.48
2022-12-17T10:19:01.229Z,17.25
2022-12-17T10:24:26.998Z,18.70
2022-12-17T10:29:50.556Z,19.00
2022-12-17T10:35:10.915Z,18.17
2022-12-17T10:40:42.741Z,19.48
2022-12-17T10:46:12.946Z,21.05
2022-12-17T10:51:42.812Z,21.40
2022-12-17T10:57:11.551Z,21.63
2022-12-17T11:02:44.029Z,22.95
2022-12-17T11:08:04.710Z,22.15
2022-12-17T11:13:29.992Z,21.02
2022-12-17T11:19:13.660Z,22.83
2022-12-17T11:24:42.868Z,25.83
2022-12-17T11:30:06.774Z,24.70
2022-12-17T11:35:44.859Z,25.40
2022-12-17T11:41:13.813Z,28.20
2022-12-17T11:46:46.466Z,27.50
2022-12-17T11:52:27.734Z,28.48
2022-12-17T11:58:39.654Z,29.75
2022-12-17T12:04:21.964Z,29.40
2022-12-17T12:10:08.301Z,26.77
2022-12-17T12:15:31.435Z,26.90
2022-12-17T12:21:16.879Z,27.42
2022-12-17T12:26:46.653Z,29.60
2022-12-17T12:32:20.099Z,28.20
2022-12-17T12:37:44.490Z,29.10
2022-12-17T12:43:15.608Z,28.02
2022-12-17T12:49:01.984Z,28.13
2022-12-17T12:54:45.653Z,31.80
2022-12-17T13:00:08.034Z,28.83
2022-12-17T13:05:41.047Z,29.85
2022-12-17T13:10:42.665Z,32.67
2022-12-17T13:15:48.868Z,30.42
2022-12-17T13:21:03.104Z,29.13
2022-12-17T13:26:30.015Z,28.17
2022-12-17T13:31:51.531Z,30.25
2022-12-17T13:37:08.539Z,32.17
2022-12-17T13:42:34.910Z,31.48
2022-12-17T13:47:38.331Z,29.52
2022-12-17T13:52:39.986Z,31.02
2022-12-17T13:57:45.791Z,33.05
2022-12-17T14:02:48.942Z,30.13
2022-12-17T14:07:51.537Z,29.45
2022-12-17T14:13:04.269Z,29.60
2022-12-17T14:18:06.265Z,25.52
2022-12-17T14:23:15.340Z,28.42
2022-12-17T14:28:29.133Z,28.38
2022-12-17T14:33:36.849Z,28.33
2022-12-17T14:38:39.274Z,27.48
2022-12-17T14:43:41.153Z,27.73
2022-12-17T14:49:01.123Z,30.23
2022-12-17T14:54:33.302Z,30.00
2022-12-17T14:59:38.275Z,28.13
2022-12-17T15:04:40.432Z,29.15
2022-12-17T15:09:42.629Z,29.45
2022-12-17T15:14:44.691Z,31.38
2022-12-17T15:19:50.165Z,29.77
2022-12-17T15:24:55.815Z,30.88
2022-12-17T15:29:57.551Z,31.80
2022-12-17T15:35:00.099Z,31.52
2022-12-17T15:40:02.091Z,33.13
2022-12-17T15:45:04.191Z,32.45
2022-12-17T15:50:07.308Z,31.48
2022-12-17T15:55:10.230Z,32.50
2022-12-17T16:00:13.065Z,30.58
2022-12-17T16:05:15.388Z,33.63
2022-12-17T16:10:18.255Z,32.67
2022-12-17T16:15:19.904Z,34.53
2022-12-17T16:20:21.576Z,34.72
2022-12-17T16:25:23.278Z,37.95
2022-12-17T16:30:25.046Z,34.80
2022-12-17T16:35:29.965Z,32.05
2022-12-17T16:40:33.241Z,35.03
2022-12-17T16:45:34.848Z,39.08
2022-12-17T16:50:36.604Z,36.97
2022-12-17T16:55:56.540Z,33.92
2022-12-17T17:01:00.225Z,34.10
2022-12-17T17:06:08.069Z,33.10
2022-12-17T17:11:24.584Z,34.92
2022-12-17T17:16:28.035Z,33.72
2022-12-17T17:21:41.239Z,38.08
2022-12-17T17:26:43.239Z,35.97
2022-12-17T17:32:09.345Z,35.50
2022-12-17T17:37:09.983Z,33.90
2022-12-17T17:42:12.702Z,36.47
2022-12-17T17:47:15.149Z,33.85
2022-12-17T17:52:17.944Z,36.40
2022-12-17T17:57:19.596Z,35.47
2022-12-17T18:02:21.399Z,34.85
2022-12-17T18:07:26.055Z,37.08
2022-12-17T18:12:47.303Z,35.55
2022-12-17T18:17:52.086Z,39.85
2022-12-17T18:22:53.889Z,38.22
2022-12-17T18:27:55.623Z,39.17
2022-12-17T18:32:57.459Z,37.47
2022-12-17T18:37:59.439Z,36.75
2022-12-17T18:43:19.934Z,37.42
2022-12-17T18:48:21.625Z,36.75
2022-12-17T18:53:24.781Z,35.75
2022-12-17T18:58:26.486Z,28.30
2022-12-17T19:03:28.292Z,35.92
2022-12-17T19:08:30.025Z,37.30
2022-12-17T19:13:33.260Z,34.97
2022-12-17T19:18:35.298Z,32.22
2022-12-17T19:23:37.920Z,32.17
2022-12-17T19:28:40.992Z,33.17
2022-12-17T19:33:42.720Z,35.53
2022-12-17T19:38:45.308Z,33.10
2022-12-17T19:43:48.956Z,33.50
2022-12-17T19:48:51.811Z,30.25
2022-12-17T19:53:55.578Z,30.17
2022-12-17T19:59:02.063Z,29.75
2022-12-17T20:04:04.806Z,29.67
2022-12-17T20:09:06.468Z,29.02
2022-12-17T20:14:12.124Z,29.98
2022-12-17T20:19:16.592Z,29.35
2022-12-17T20:24:18.585Z,30.83
2022-12-17T20:29:21.821Z,28.80
2022-12-17T20:34:24.260Z,26.73
2022-12-17T20:39:28.204Z,27.13
2022-12-17T20:44:30.274Z,29.15
2022-12-17T20:49:31.957Z,29.83
2022-12-17T20:54:34.236Z,29.30
2022-12-17T20:59:35.905Z,30.05
2022-12-17T21:04:37.510Z,29.77
2022-12-17T21:09:39.099Z,30.73
2022-12-17T21:14:40.983Z,30.80
2022-12-17T21:19:42.567Z,30.23
2022-12-17T21:24:44.324Z,29.17
2022-12-17T21:29:46.908Z,29.52
2022-12-17T21:34:48.650Z,29.30
2022-12-17T21:39:52.824Z,31.25
2022-12-17T21:44:58.196Z,32.40
2022-12-17T21:50:00.138Z,35.15
2022-12-17T21:55:01.715Z,33.65
2022-12-17T22:00:04.068Z,30.60
2022-12-17T22:05:06.229Z,30.25
2022-12-17T22:10:33.112Z,36.45
2022-12-17T22:15:31.021Z,33.53
2022-12-17T22:20:36.129Z,34.30
2022-12-17T22:25:38.585Z,34.67
2022-12-17T22:30:59.236Z,29.95
2022-12-17T22:37:45.432Z,28.50
2022-12-17T22:44:49.261Z,28.15
2022-12-17T22:47:05.928Z,31.67
2022-12-17T22:52:07.516Z,26.45
2022-12-17T22:57:36.204Z,28.23
2022-12-17T23:02:30.865Z,28.55
2022-12-17T23:07:32.509Z,33.47
2022-12-17T23:12:52.879Z,32.33
2022-12-17T23:17:57.328Z,28.55
2022-12-17T23:22:59.577Z,30.67
2022-12-17T23:28:01.222Z,27.17
2022-12-17T23:33:04.767Z,26.00
2022-12-17T23:38:06.634Z,27.65
2022-12-17T23:43:09.701Z,26.80
2022-12-17T23:48:14.580Z,25.95
2022-12-17T23:53:16.285Z,27.70
2022-12-17T23:58:17.987Z,28.15
